»·PEaware :: N761FG KTOA-KVNY

N761FG :: KTOA-KVNY

FLIGHT INFORMATION

Flight Status: Arrived
Operator: Privately registered:
United States
More flights under this callsign
Pilot: Glenn W. (23047)
Aircraft: CESSNA 172 SKYHAWK
(C172)
More flights by this aircraft type
Origin: KTOA Zamperini
United States
Destination: KVNY Van Nuys
United States
More flights between these airports :: More routes between these airports
Route: +SMO SMO317R CANOG
File this flight plan on PilotEdge
Remarks: Sky high charters - Scenario 1
Altitude:
(Current/Filed)
4,000ft
Speed:
(Current/Filed)
110kts
Departed: 30-Dec-19 11:19 AM
Arrived: 30-Dec-19 12:34 PM
Distance/Time
Traveled:
26nm/1:15
Distance/Time
To Go:
Arrived

Flight Plot

Page will automatically refresh every two minutes.


Map Options




Map Legend


Flown Route
Filed Route
Departure Airport
Arrival Airport
Navaid (VOR, NDB)
Fix

Horizontal Profiles

Position Reports

Time Latitude Longitude Heading Altitude Ground
Speed
30-Dec-19 11:08 33.800882 -118.340442 128 106ft 0kts
30-Dec-19 11:09 33.800882 -118.340442 128 106ft 0kts
30-Dec-19 11:10 33.800882 -118.340442 128 106ft 0kts
30-Dec-19 11:11 33.800882 -118.340442 128 106ft 0kts
30-Dec-19 11:12 33.800882 -118.340442 128 106ft 0kts
30-Dec-19 11:12 33.800882 -118.340442 128 106ft 0kts
30-Dec-19 11:14 33.800882 -118.340442 128 106ft 0kts
30-Dec-19 11:14 33.801164 -118.339260 110 103ft 8kts
30-Dec-19 11:15 33.798174 -118.334731 128 106ft 13kts
30-Dec-19 11:17 33.799027 -118.333360 36 101ft 0kts
30-Dec-19 11:17 33.799027 -118.333360 36 101ft 0kts
30-Dec-19 11:18 33.805852 -118.342158 306 363ft 77kts
30-Dec-19 11:19 33.819687 -118.364123 308 1269ft 83kts
30-Dec-19 11:20 33.834389 -118.385637 310 2165ft 83kts
30-Dec-19 11:21 33.849182 -118.406370 310 3011ft 80kts
30-Dec-19 11:22 33.857915 -118.430701 258 3751ft 83kts
30-Dec-19 11:23 33.834541 -118.442033 187 4033ft 119kts
30-Dec-19 11:24 33.799360 -118.446229 185 4011ft 131kts
30-Dec-19 11:25 33.763128 -118.450566 184 4005ft 120kts
30-Dec-19 11:26 33.754231 -118.426598 78 4017ft 106kts
30-Dec-19 11:27 33.759968 -118.386659 84 4026ft 130kts
30-Dec-19 11:28 33.763453 -118.343184 84 4011ft 133kts
30-Dec-19 11:29 33.766935 -118.298869 84 4005ft 131kts
30-Dec-19 11:30 33.770334 -118.254786 84 4002ft 131kts
30-Dec-19 11:31 33.793697 -118.238552 327 3994ft 130kts
30-Dec-19 11:32 33.822405 -118.266099 319 3997ft 131kts
30-Dec-19 11:33 33.850489 -118.294995 319 3997ft 131kts
30-Dec-19 11:34 33.878802 -118.324024 319 4004ft 131kts
30-Dec-19 11:35 33.907094 -118.352929 319 4001ft 131kts
30-Dec-19 11:36 33.935504 -118.381843 320 3999ft 131kts
30-Dec-19 11:37 33.963647 -118.410017 321 4081ft 128kts
30-Dec-19 11:38 33.991616 -118.438095 321 4106ft 129kts
30-Dec-19 11:39 34.020355 -118.465660 323 4035ft 133kts
30-Dec-19 11:40 34.052964 -118.486133 337 4030ft 133kts
30-Dec-19 11:41 34.086392 -118.503051 335 4116ft 128kts
30-Dec-19 11:42 34.117998 -118.525767 331 4052ft 133kts
30-Dec-19 11:43 34.151257 -118.544895 327 4066ft 129kts
30-Dec-19 11:44 34.182909 -118.562778 352 4442ft 100kts
30-Dec-19 11:45 34.208900 -118.567136 351 5053ft 106kts
30-Dec-19 11:46 34.241802 -118.572654 352 5029ft 132kts
30-Dec-19 11:47 34.278002 -118.578530 353 5021ft 130kts
30-Dec-19 11:48 34.313828 -118.584764 352 5037ft 130kts
30-Dec-19 11:49 34.349900 -118.590632 351 5015ft 130kts
30-Dec-19 11:50 34.385570 -118.596408 350 5090ft 126kts
30-Dec-19 11:51 34.421745 -118.601894 351 5022ft 130kts
30-Dec-19 11:52 34.457698 -118.607849 8 4969ft 135kts
30-Dec-19 11:53 34.466065 -118.570622 94 5086ft 123kts
30-Dec-19 11:54 34.458715 -118.528053 136 4919ft 135kts
30-Dec-19 11:55 34.426350 -118.512836 179 4870ft 115kts
30-Dec-19 11:56 34.398066 -118.510688 177 4350ft 97kts
30-Dec-19 11:57 34.371433 -118.506639 175 3853ft 97kts
30-Dec-19 11:58 34.343833 -118.504585 177 3745ft 95kts
30-Dec-19 11:59 34.317926 -118.501051 175 2906ft 88kts
30-Dec-19 12:00 34.295590 -118.498752 175 2301ft 73kts
30-Dec-19 12:01 34.273984 -118.496304 175 1611ft 75kts
30-Dec-19 12:02 34.249689 -118.494314 175 1244ft 98kts
30-Dec-19 12:03 34.223302 -118.491601 175 1046ft 89kts
30-Dec-19 12:04 34.191639 -118.487653 156 1406ft 113kts
30-Dec-19 12:05 34.165671 -118.476591 165 2441ft 82kts
30-Dec-19 12:06 34.144306 -118.470646 163 3372ft 69kts
30-Dec-19 12:07 34.124139 -118.465453 174 4045ft 81kts
30-Dec-19 12:08 34.101560 -118.458755 164 4638ft 100kts
30-Dec-19 12:09 34.068686 -118.457286 182 4634ft 130kts
30-Dec-19 12:10 34.031526 -118.460256 182 4601ft 129kts
30-Dec-19 12:11 34.018444 -118.481730 279 4637ft 98kts
30-Dec-19 12:12 34.021818 -118.521422 281 4660ft 126kts
30-Dec-19 12:13 34.031277 -118.563028 282 4589ft 135kts
30-Dec-19 12:14 34.039504 -118.605774 280 4647ft 131kts
30-Dec-19 12:15 34.047479 -118.648358 283 4631ft 134kts
30-Dec-19 12:16 34.055246 -118.690757 284 4649ft 130kts
30-Dec-19 12:17 34.062367 -118.733959 280 4622ft 131kts
30-Dec-19 12:18 34.070325 -118.776922 282 4610ft 132kts
30-Dec-19 12:19 34.081277 -118.817183 333 4617ft 132kts
30-Dec-19 12:20 34.115971 -118.807370 16 4608ft 132kts
30-Dec-19 12:21 34.150814 -118.794455 15 4610ft 132kts
30-Dec-19 12:22 34.185921 -118.782588 14 4607ft 132kts
30-Dec-19 12:23 34.202953 -118.753130 94 4406ft 132kts
30-Dec-19 12:24 34.201342 -118.714285 89 3570ft 104kts
30-Dec-19 12:25 34.199895 -118.673190 92 3510ft 132kts
30-Dec-19 12:26 34.201513 -118.628175 85 3427ft 135kts
30-Dec-19 12:27 34.201648 -118.589956 89 2404ft 111kts
30-Dec-19 12:28 34.203354 -118.557798 83 1666ft 79kts
30-Dec-19 12:29 34.202414 -118.526793 98 1557ft 102kts
30-Dec-19 12:30 34.181271 -118.513670 171 1804ft 95kts
30-Dec-19 12:31 34.184013 -118.486789 17 1745ft 93kts
30-Dec-19 12:32 34.205743 -118.488795 352 933ft 64kts
30-Dec-19 12:33 34.213351 -118.488973 84 806ft 6kts
30-Dec-19 12:34 34.213358 -118.488710 118 806ft 4kts
30-Dec-19 12:35 34.210569 -118.488396 158 806ft 9kts
30-Dec-19 12:36 34.210561 -118.487089 1 806ft 0kts

Navigation Log

Ident Type
Flight plan parsing failed, navigation log unavailable